Calwa, California
Current Conditions -  °F | °C
As of 11:53 AM on Thursday 30 Oct 2014 (Local Time) from KFAT Reporting Station
Broken Clouds Broken Clouds  
Wind Chill: 75°   Ceiling: 20000
Heat Index: 75°   Visibility: 7mi
Dew Point: 44°   Wind: 5mph
Humidity: 33%   Direction: 180°S
Pressure: 29.95"   Gusts: NA
Location:  36.7109°N, 119.757°W
Report Text: KFAT 301853Z 18004KT 7SM SCT150 BKN200 24/07 A2995 RMK AO2 SLP140 MTNS OBSC HZ DSNT N-E-S T02390067
Loading
Personal Weather Stations






























Interactive Weather Map
Tropical Storm Tracking
New forecast layout! Learn more

10-Day Weather Forecast

Advertisements
Track Severe Weather on mobile